Huntersville, NC

6:28 PM EST on February 05, 2016 (GMT -0500)
Gastonia Municipal | | Change Station
CLOSE
Current Station
Airport
Location: Gastonia,
Elevation: 797 ft
Nearby Weather Stations

Elev 797 ft 35.20 °N, 81.16 °W | Updated 34 minutes ago

Clear
Clear
45 °F
Feels Like 42 °F
N
6
Wind Variable Wind from NNE

Today
High -- | Low -- °F
--% Chance of Precip.
Yesterday
High -- | Low -- °F
Precip. -- in
Pressure 30.35 in
Visibility 10.0 miles
Clouds Clear
Windchill 42 °F
Dew Point 14 °F
Humidity 29%
Rainfall 0.00 in
Snow Depth Not available.
7:20 AM 5:55 PM
Waning Crescent, 9% visible
METAR KAKH 052254Z AUTO 02005KT 10SM CLR 07/M10 A3033 RMK AO2 SLP276 T00721100 TSNO
Pressure 30.35 in
Visibility 10.0 miles
Clouds Clear
Windchill 42 °F
Dew Point 14 °F
Humidity 29%
Rainfall 0.00 in
Snow Depth Not available.
7:20 AM 5:55 PM
Waning Crescent, 9% visible
METAR KAKH 052254Z AUTO 02005KT 10SM CLR 07/M10 A3033 RMK AO2 SLP276 T00721100 TSNO

10-Day Weather Forecast

Almanac

Astronomy

Feb. 05, 2016 Rise Set
Actual Time
Civil Twilight
Nautical Twilight
Astronomical Twilight
Moon
Length of Visible Light
Length of Day
Tomorrow will be .
, % of the Moon is Illuminated

Today's Extremes

State Highs State Lows

Community

WunderPhotos

Upload Photos

1,890,882 photos uploaded!

WunderBlog® & News

Nearby

Air Quality

  Air Quality AQ Index Pollutant
Not available.

Snow Depth

Station Depth Elevation

Earthquake Activity

City Distance Mag. Time & Date
Minimum magnitude displayed is 2.5.

Coastal Water Temperatures

Place Temperature

Stations

Nearby Weather Stations

Station Location Temp. Windchill Dew Point Humidity Wind Precip. Elev Updated Type
                   

Watches & Warnings

There are currently no watches in effect.